sensor_id;sensor_type;location;lat;lon;timestamp;temperature;humidity
5011;DHT22;2524;54.364;10.072;2024-03-07T00:02:19;4.80;99.90
5011;DHT22;2524;54.364;10.072;2024-03-07T00:04:45;4.90;99.90
5011;DHT22;2524;54.364;10.072;2024-03-07T00:07:10;4.80;99.90
5011;DHT22;2524;54.364;10.072;2024-03-07T00:09:36;5.00;99.90
5011;DHT22;2524;54.364;10.072;2024-03-07T00:12:02;4.80;99.90
5011;DHT22;2524;54.364;10.072;2024-03-07T00:14:28;4.80;99.90
5011;DHT22;2524;54.364;10.072;2024-03-07T00:16:58;4.80;99.90
5011;DHT22;2524;54.364;10.072;2024-03-07T00:19:26;4.80;99.90
5011;DHT22;2524;54.364;10.072;2024-03-07T00:21:53;4.70;99.90
5011;DHT22;2524;54.364;10.072;2024-03-07T00:24:22;4.70;99.90
5011;DHT22;2524;54.364;10.072;2024-03-07T00:26:48;4.90;99.90
5011;DHT22;2524;54.364;10.072;2024-03-07T00:29:17;4.70;99.90
5011;DHT22;2524;54.364;10.072;2024-03-07T00:31:47;4.70;99.90
5011;DHT22;2524;54.364;10.072;2024-03-07T00:34:13;4.70;99.90
5011;DHT22;2524;54.364;10.072;2024-03-07T00:36:44;4.70;99.90
5011;DHT22;2524;54.364;10.072;2024-03-07T00:39:10;4.70;99.90
5011;DHT22;2524;54.364;10.072;2024-03-07T00:41:41;4.70;99.90
5011;DHT22;2524;54.364;10.072;2024-03-07T00:44:07;4.70;99.90
5011;DHT22;2524;54.364;10.072;2024-03-07T00:46:35;4.70;99.90
5011;DHT22;2524;54.364;10.072;2024-03-07T00:49:02;4.70;99.90
5011;DHT22;2524;54.364;10.072;2024-03-07T00:51:27;4.70;99.90
5011;DHT22;2524;54.364;10.072;2024-03-07T00:53:53;4.70;99.90
5011;DHT22;2524;54.364;10.072;2024-03-07T00:56:20;4.70;99.90
5011;DHT22;2524;54.364;10.072;2024-03-07T00:58:47;4.70;99.90
5011;DHT22;2524;54.364;10.072;2024-03-07T01:01:13;4.80;99.90
5011;DHT22;2524;54.364;10.072;2024-03-07T01:03:39;4.80;99.90
5011;DHT22;2524;54.364;10.072;2024-03-07T01:06:05;4.60;99.90
5011;DHT22;2524;54.364;10.072;2024-03-07T01:08:30;4.70;99.90
5011;DHT22;2524;54.364;10.072;2024-03-07T01:10:58;4.60;99.90
5011;DHT22;2524;54.364;10.072;2024-03-07T01:13:24;4.60;99.90
5011;DHT22;2524;54.364;10.072;2024-03-07T01:15:49;4.50;99.90
5011;DHT22;2524;54.364;10.072;2024-03-07T01:18:15;4.60;99.90
5011;DHT22;2524;54.364;10.072;2024-03-07T01:20:42;4.50;99.90
5011;DHT22;2524;54.364;10.072;2024-03-07T01:23:08;4.50;99.90
5011;DHT22;2524;54.364;10.072;2024-03-07T01:25:34;4.50;99.90
5011;DHT22;2524;54.364;10.072;2024-03-07T01:28:00;4.70;99.90
5011;DHT22;2524;54.364;10.072;2024-03-07T01:30:26;4.50;99.90
5011;DHT22;2524;54.364;10.072;2024-03-07T01:32:54;4.50;99.90
5011;DHT22;2524;54.364;10.072;2024-03-07T01:35:19;4.50;99.90
5011;DHT22;2524;54.364;10.072;2024-03-07T01:37:45;4.50;99.90
5011;DHT22;2524;54.364;10.072;2024-03-07T01:40:11;4.50;99.90
5011;DHT22;2524;54.364;10.072;2024-03-07T01:42:37;4.40;99.90
5011;DHT22;2524;54.364;10.072;2024-03-07T01:45:03;4.50;99.90
5011;DHT22;2524;54.364;10.072;2024-03-07T01:47:28;4.50;99.90
5011;DHT22;2524;54.364;10.072;2024-03-07T01:49:54;4.50;99.90
5011;DHT22;2524;54.364;10.072;2024-03-07T01:52:20;4.40;99.90
5011;DHT22;2524;54.364;10.072;2024-03-07T01:54:48;4.50;99.90
5011;DHT22;2524;54.364;10.072;2024-03-07T01:57:16;4.40;99.90
5011;DHT22;2524;54.364;10.072;2024-03-07T01:59:43;4.40;99.90
5011;DHT22;2524;54.364;10.072;2024-03-07T02:02:09;4.40;99.90
5011;DHT22;2524;54.364;10.072;2024-03-07T02:04:34;4.40;99.90
5011;DHT22;2524;54.364;10.072;2024-03-07T02:07:00;4.40;99.90
5011;DHT22;2524;54.364;10.072;2024-03-07T02:09:26;4.40;99.90
5011;DHT22;2524;54.364;10.072;2024-03-07T02:11:51;4.40;99.90
5011;DHT22;2524;54.364;10.072;2024-03-07T02:14:17;4.40;99.90
5011;DHT22;2524;54.364;10.072;2024-03-07T02:16:43;4.30;99.90
5011;DHT22;2524;54.364;10.072;2024-03-07T02:19:12;4.30;99.90
5011;DHT22;2524;54.364;10.072;2024-03-07T02:21:39;4.30;99.90
5011;DHT22;2524;54.364;10.072;2024-03-07T02:24:05;4.30;99.90
5011;DHT22;2524;54.364;10.072;2024-03-07T02:26:30;4.20;99.90
5011;DHT22;2524;54.364;10.072;2024-03-07T02:28:56;4.40;99.90
5011;DHT22;2524;54.364;10.072;2024-03-07T02:31:22;4.20;99.90
5011;DHT22;2524;54.364;10.072;2024-03-07T02:34:00;4.20;99.90
5011;DHT22;2524;54.364;10.072;2024-03-07T02:36:27;4.20;99.90
5011;DHT22;2524;54.364;10.072;2024-03-07T02:38:52;4.20;99.90
5011;DHT22;2524;54.364;10.072;2024-03-07T02:41:18;3.80;99.90
5011;DHT22;2524;54.364;10.072;2024-03-07T02:43:43;3.90;99.90
5011;DHT22;2524;54.364;10.072;2024-03-07T02:46:09;4.00;99.90
5011;DHT22;2524;54.364;10.072;2024-03-07T02:48:37;4.00;99.90
5011;DHT22;2524;54.364;10.072;2024-03-07T02:51:03;3.50;99.90
5011;DHT22;2524;54.364;10.072;2024-03-07T02:53:31;4.00;99.90
5011;DHT22;2524;54.364;10.072;2024-03-07T02:55:57;3.50;99.90
5011;DHT22;2524;54.364;10.072;2024-03-07T02:58:23;3.60;99.90
5011;DHT22;2524;54.364;10.072;2024-03-07T03:00:57;3.90;99.90
5011;DHT22;2524;54.364;10.072;2024-03-07T03:03:23;3.90;99.90
5011;DHT22;2524;54.364;10.072;2024-03-07T03:05:48;3.70;99.90
5011;DHT22;2524;54.364;10.072;2024-03-07T03:08:14;4.00;99.90
5011;DHT22;2524;54.364;10.072;2024-03-07T03:10:40;3.90;99.90
5011;DHT22;2524;54.364;10.072;2024-03-07T03:13:06;4.10;99.90
5011;DHT22;2524;54.364;10.072;2024-03-07T03:15:32;3.90;99.90
5011;DHT22;2524;54.364;10.072;2024-03-07T03:17:58;3.60;99.90
5011;DHT22;2524;54.364;10.072;2024-03-07T03:20:26;3.90;99.90
5011;DHT22;2524;54.364;10.072;2024-03-07T03:22:59;3.80;99.90
5011;DHT22;2524;54.364;10.072;2024-03-07T03:25:25;3.80;99.90
5011;DHT22;2524;54.364;10.072;2024-03-07T03:27:51;4.10;99.90
5011;DHT22;2524;54.364;10.072;2024-03-07T03:30:17;4.00;99.90
5011;DHT22;2524;54.364;10.072;2024-03-07T03:32:47;3.80;99.90
5011;DHT22;2524;54.364;10.072;2024-03-07T03:35:14;3.50;99.90
5011;DHT22;2524;54.364;10.072;2024-03-07T03:37:40;3.40;99.90
5011;DHT22;2524;54.364;10.072;2024-03-07T03:40:07;3.50;99.90
5011;DHT22;2524;54.364;10.072;2024-03-07T03:42:35;4.00;99.90
5011;DHT22;2524;54.364;10.072;2024-03-07T03:45:02;3.80;99.90
5011;DHT22;2524;54.364;10.072;2024-03-07T03:47:33;3.90;99.90
5011;DHT22;2524;54.364;10.072;2024-03-07T03:49:59;3.30;99.90
5011;DHT22;2524;54.364;10.072;2024-03-07T03:52:24;3.80;99.90
5011;DHT22;2524;54.364;10.072;2024-03-07T03:54:51;3.60;99.90
5011;DHT22;2524;54.364;10.072;2024-03-07T03:57:17;4.00;99.90
5011;DHT22;2524;54.364;10.072;2024-03-07T03:59:43;3.80;99.90
5011;DHT22;2524;54.364;10.072;2024-03-07T04:02:10;4.00;99.90
5011;DHT22;2524;54.364;10.072;2024-03-07T04:04:39;3.60;99.90
5011;DHT22;2524;54.364;10.072;2024-03-07T04:07:04;3.50;99.90
5011;DHT22;2524;54.364;10.072;2024-03-07T04:09:30;3.80;99.90
5011;DHT22;2524;54.364;10.072;2024-03-07T04:11:56;3.60;99.90
5011;DHT22;2524;54.364;10.072;2024-03-07T04:14:23;4.00;99.90
5011;DHT22;2524;54.364;10.072;2024-03-07T04:16:48;3.40;99.90
5011;DHT22;2524;54.364;10.072;2024-03-07T04:19:14;4.00;99.90
5011;DHT22;2524;54.364;10.072;2024-03-07T04:21:40;3.40;99.90
5011;DHT22;2524;54.364;10.072;2024-03-07T04:24:05;3.90;99.90
5011;DHT22;2524;54.364;10.072;2024-03-07T04:26:31;3.90;99.90
5011;DHT22;2524;54.364;10.072;2024-03-07T04:28:57;3.40;99.90
5011;DHT22;2524;54.364;10.072;2024-03-07T04:31:23;3.40;99.90
5011;DHT22;2524;54.364;10.072;2024-03-07T04:33:49;3.40;99.90
5011;DHT22;2524;54.364;10.072;2024-03-07T04:36:16;3.80;99.90
5011;DHT22;2524;54.364;10.072;2024-03-07T04:38:42;3.50;99.90
5011;DHT22;2524;54.364;10.072;2024-03-07T04:41:13;3.80;99.90
5011;DHT22;2524;54.364;10.072;2024-03-07T04:43:40;3.80;99.90
5011;DHT22;2524;54.364;10.072;2024-03-07T04:46:08;3.30;99.90
5011;DHT22;2524;54.364;10.072;2024-03-07T04:48:33;3.40;99.90
5011;DHT22;2524;54.364;10.072;2024-03-07T04:50:59;3.40;99.90
5011;DHT22;2524;54.364;10.072;2024-03-07T04:53:24;3.80;99.90
5011;DHT22;2524;54.364;10.072;2024-03-07T04:55:50;3.70;99.90
5011;DHT22;2524;54.364;10.072;2024-03-07T04:58:16;3.90;99.90
5011;DHT22;2524;54.364;10.072;2024-03-07T05:00:42;3.30;99.90
5011;DHT22;2524;54.364;10.072;2024-03-07T05:03:07;3.60;99.90
5011;DHT22;2524;54.364;10.072;2024-03-07T05:05:33;3.70;99.90
5011;DHT22;2524;54.364;10.072;2024-03-07T05:07:58;3.30;99.90
5011;DHT22;2524;54.364;10.072;2024-03-07T05:10:24;3.60;99.90
5011;DHT22;2524;54.364;10.072;2024-03-07T05:12:50;3.60;99.90
5011;DHT22;2524;54.364;10.072;2024-03-07T05:15:16;3.30;99.90
5011;DHT22;2524;54.364;10.072;2024-03-07T05:17:42;3.60;99.90
5011;DHT22;2524;54.364;10.072;2024-03-07T05:20:09;3.70;99.90
5011;DHT22;2524;54.364;10.072;2024-03-07T05:22:38;3.70;99.90
5011;DHT22;2524;54.364;10.072;2024-03-07T05:25:12;3.30;99.90
5011;DHT22;2524;54.364;10.072;2024-03-07T05:27:38;3.60;99.90
5011;DHT22;2524;54.364;10.072;2024-03-07T05:30:05;3.70;99.90
5011;DHT22;2524;54.364;10.072;2024-03-07T05:32:31;3.50;99.90
5011;DHT22;2524;54.364;10.072;2024-03-07T05:34:59;3.70;99.90
5011;DHT22;2524;54.364;10.072;2024-03-07T05:37:25;3.20;99.90
5011;DHT22;2524;54.364;10.072;2024-03-07T05:39:51;3.50;99.90
5011;DHT22;2524;54.364;10.072;2024-03-07T05:42:16;3.60;99.90
5011;DHT22;2524;54.364;10.072;2024-03-07T05:44:42;3.20;99.90
5011;DHT22;2524;54.364;10.072;2024-03-07T05:47:09;3.50;99.90
5011;DHT22;2524;54.364;10.072;2024-03-07T05:49:35;3.50;99.90
5011;DHT22;2524;54.364;10.072;2024-03-07T05:52:02;3.70;99.90
5011;DHT22;2524;54.364;10.072;2024-03-07T05:54:28;3.60;99.90
5011;DHT22;2524;54.364;10.072;2024-03-07T05:56:55;3.10;99.90
5011;DHT22;2524;54.364;10.072;2024-03-07T05:59:20;3.10;99.90
5011;DHT22;2524;54.364;10.072;2024-03-07T06:01:46;3.00;99.90
5011;DHT22;2524;54.364;10.072;2024-03-07T06:04:13;3.80;99.90
5011;DHT22;2524;54.364;10.072;2024-03-07T06:06:40;3.60;99.90
5011;DHT22;2524;54.364;10.072;2024-03-07T06:09:08;3.60;99.90
5011;DHT22;2524;54.364;10.072;2024-03-07T06:11:38;3.80;99.90
5011;DHT22;2524;54.364;10.072;2024-03-07T06:14:05;3.40;99.90
5011;DHT22;2524;54.364;10.072;2024-03-07T06:16:33;3.40;99.90
5011;DHT22;2524;54.364;10.072;2024-03-07T06:19:08;3.70;99.90
5011;DHT22;2524;54.364;10.072;2024-03-07T06:21:36;3.40;99.90
5011;DHT22;2524;54.364;10.072;2024-03-07T06:24:02;3.90;99.90
5011;DHT22;2524;54.364;10.072;2024-03-07T06:26:29;3.80;99.90
5011;DHT22;2524;54.364;10.072;2024-03-07T06:29:17;3.70;99.90
5011;DHT22;2524;54.364;10.072;2024-03-07T06:31:44;4.00;99.90
5011;DHT22;2524;54.364;10.072;2024-03-07T06:34:13;3.60;99.90
5011;DHT22;2524;54.364;10.072;2024-03-07T06:36:39;4.00;99.90
5011;DHT22;2524;54.364;10.072;2024-03-07T06:39:06;3.80;99.90
5011;DHT22;2524;54.364;10.072;2024-03-07T06:41:33;3.50;99.90
5011;DHT22;2524;54.364;10.072;2024-03-07T06:43:58;3.80;99.90
5011;DHT22;2524;54.364;10.072;2024-03-07T06:46:24;3.50;99.90
5011;DHT22;2524;54.364;10.072;2024-03-07T06:48:50;3.90;99.90
5011;DHT22;2524;54.364;10.072;2024-03-07T06:51:16;4.20;99.90
5011;DHT22;2524;54.364;10.072;2024-03-07T06:53:43;3.40;99.90
5011;DHT22;2524;54.364;10.072;2024-03-07T06:56:09;3.90;99.90
5011;DHT22;2524;54.364;10.072;2024-03-07T06:58:36;3.90;99.90
5011;DHT22;2524;54.364;10.072;2024-03-07T07:01:01;3.90;99.90
5011;DHT22;2524;54.364;10.072;2024-03-07T07:03:32;4.10;99.90
5011;DHT22;2524;54.364;10.072;2024-03-07T07:05:58;4.10;99.90
5011;DHT22;2524;54.364;10.072;2024-03-07T07:08:24;3.90;99.90
5011;DHT22;2524;54.364;10.072;2024-03-07T07:10:49;3.50;99.90
5011;DHT22;2524;54.364;10.072;2024-03-07T07:13:15;3.80;99.90
5011;DHT22;2524;54.364;10.072;2024-03-07T07:15:42;3.70;99.90
5011;DHT22;2524;54.364;10.072;2024-03-07T07:18:08;3.80;99.90
5011;DHT22;2524;54.364;10.072;2024-03-07T07:20:36;3.60;99.90
5011;DHT22;2524;54.364;10.072;2024-03-07T07:23:02;3.80;99.90
5011;DHT22;2524;54.364;10.072;2024-03-07T07:25:29;3.90;99.90
5011;DHT22;2524;54.364;10.072;2024-03-07T07:27:55;3.80;99.90
5011;DHT22;2524;54.364;10.072;2024-03-07T07:30:22;4.20;99.90
5011;DHT22;2524;54.364;10.072;2024-03-07T07:32:48;4.10;99.90
5011;DHT22;2524;54.364;10.072;2024-03-07T07:35:14;4.40;99.90
5011;DHT22;2524;54.364;10.072;2024-03-07T07:37:50;4.10;99.90
5011;DHT22;2524;54.364;10.072;2024-03-07T07:40:19;4.40;99.90
5011;DHT22;2524;54.364;10.072;2024-03-07T07:42:45;3.70;99.90
5011;DHT22;2524;54.364;10.072;2024-03-07T07:45:13;4.10;99.90
5011;DHT22;2524;54.364;10.072;2024-03-07T07:47:44;4.20;99.90
5011;DHT22;2524;54.364;10.072;2024-03-07T07:50:11;4.70;99.90
5011;DHT22;2524;54.364;10.072;2024-03-07T07:52:47;4.00;99.90
5011;DHT22;2524;54.364;10.072;2024-03-07T07:55:19;4.30;99.90
5011;DHT22;2524;54.364;10.072;2024-03-07T07:57:49;4.30;99.90
5011;DHT22;2524;54.364;10.072;2024-03-07T08:00:18;4.20;99.90
5011;DHT22;2524;54.364;10.072;2024-03-07T08:03:06;4.40;99.90
5011;DHT22;2524;54.364;10.072;2024-03-07T08:05:33;3.90;99.90
5011;DHT22;2524;54.364;10.072;2024-03-07T08:08:00;4.40;99.90
5011;DHT22;2524;54.364;10.072;2024-03-07T08:10:30;4.10;99.90
5011;DHT22;2524;54.364;10.072;2024-03-07T08:12:56;4.60;99.90
5011;DHT22;2524;54.364;10.072;2024-03-07T08:15:24;4.50;99.90
5011;DHT22;2524;54.364;10.072;2024-03-07T08:17:50;4.00;99.90
5011;DHT22;2524;54.364;10.072;2024-03-07T08:20:18;4.00;99.90
5011;DHT22;2524;54.364;10.072;2024-03-07T08:22:46;4.60;99.90
5011;DHT22;2524;54.364;10.072;2024-03-07T08:25:13;4.40;99.90
5011;DHT22;2524;54.364;10.072;2024-03-07T08:27:41;4.60;99.90
5011;DHT22;2524;54.364;10.072;2024-03-07T08:30:08;4.20;99.90
5011;DHT22;2524;54.364;10.072;2024-03-07T08:32:39;4.50;99.90
5011;DHT22;2524;54.364;10.072;2024-03-07T08:35:05;4.30;99.90
5011;DHT22;2524;54.364;10.072;2024-03-07T08:37:45;4.60;99.90
5011;DHT22;2524;54.364;10.072;2024-03-07T08:40:11;4.60;99.90
5011;DHT22;2524;54.364;10.072;2024-03-07T08:42:48;4.60;99.90
5011;DHT22;2524;54.364;10.072;2024-03-07T08:45:15;4.70;99.90
5011;DHT22;2524;54.364;10.072;2024-03-07T08:47:46;4.60;99.90
5011;DHT22;2524;54.364;10.072;2024-03-07T08:50:12;4.70;99.90
5011;DHT22;2524;54.364;10.072;2024-03-07T08:52:39;4.90;99.90
5011;DHT22;2524;54.364;10.072;2024-03-07T08:55:21;4.50;99.90
5011;DHT22;2524;54.364;10.072;2024-03-07T08:57:47;4.40;99.90
5011;DHT22;2524;54.364;10.072;2024-03-07T09:00:15;4.80;99.90
5011;DHT22;2524;54.364;10.072;2024-03-07T09:02:51;4.70;99.90
5011;DHT22;2524;54.364;10.072;2024-03-07T09:05:20;4.70;99.90
5011;DHT22;2524;54.364;10.072;2024-03-07T09:07:47;4.90;99.90
5011;DHT22;2524;54.364;10.072;2024-03-07T09:10:13;4.80;99.90
5011;DHT22;2524;54.364;10.072;2024-03-07T09:12:46;4.70;99.90
5011;DHT22;2524;54.364;10.072;2024-03-07T09:15:15;4.70;99.90
5011;DHT22;2524;54.364;10.072;2024-03-07T09:17:42;4.50;99.90
5011;DHT22;2524;54.364;10.072;2024-03-07T09:20:08;5.00;99.90
5011;DHT22;2524;54.364;10.072;2024-03-07T09:22:48;4.80;99.90
5011;DHT22;2524;54.364;10.072;2024-03-07T09:25:15;4.40;99.90
5011;DHT22;2524;54.364;10.072;2024-03-07T09:27:41;4.90;99.90
5011;DHT22;2524;54.364;10.072;2024-03-07T09:30:08;4.90;99.90
5011;DHT22;2524;54.364;10.072;2024-03-07T09:32:39;4.80;99.90
5011;DHT22;2524;54.364;10.072;2024-03-07T09:35:05;5.20;99.90
5011;DHT22;2524;54.364;10.072;2024-03-07T09:37:32;5.00;99.90
5011;DHT22;2524;54.364;10.072;2024-03-07T09:39:58;4.80;99.90
5011;DHT22;2524;54.364;10.072;2024-03-07T09:42:25;4.80;99.90
5011;DHT22;2524;54.364;10.072;2024-03-07T09:44:51;4.90;99.90
5011;DHT22;2524;54.364;10.072;2024-03-07T09:47:18;5.10;99.90
5011;DHT22;2524;54.364;10.072;2024-03-07T09:49:45;4.40;99.90
5011;DHT22;2524;54.364;10.072;2024-03-07T09:52:11;4.70;99.90
5011;DHT22;2524;54.364;10.072;2024-03-07T09:54:39;5.00;99.90
5011;DHT22;2524;54.364;10.072;2024-03-07T09:57:06;4.40;99.90
5011;DHT22;2524;54.364;10.072;2024-03-07T09:59:34;5.00;99.90
5011;DHT22;2524;54.364;10.072;2024-03-07T10:02:06;4.90;99.90
5011;DHT22;2524;54.364;10.072;2024-03-07T10:04:37;5.00;99.90
5011;DHT22;2524;54.364;10.072;2024-03-07T10:07:03;4.80;99.90
5011;DHT22;2524;54.364;10.072;2024-03-07T10:09:29;4.80;99.90
5011;DHT22;2524;54.364;10.072;2024-03-07T10:11:58;5.20;99.90
5011;DHT22;2524;54.364;10.072;2024-03-07T10:14:24;4.70;99.90
5011;DHT22;2524;54.364;10.072;2024-03-07T10:16:50;4.60;99.90
5011;DHT22;2524;54.364;10.072;2024-03-07T10:19:19;5.00;99.90
5011;DHT22;2524;54.364;10.072;2024-03-07T10:21:44;5.40;99.90
5011;DHT22;2524;54.364;10.072;2024-03-07T10:24:10;4.60;99.90
5011;DHT22;2524;54.364;10.072;2024-03-07T10:26:40;5.10;99.90
5011;DHT22;2524;54.364;10.072;2024-03-07T10:29:09;5.00;99.90
5011;DHT22;2524;54.364;10.072;2024-03-07T10:31:35;5.00;99.90
5011;DHT22;2524;54.364;10.072;2024-03-07T10:34:03;4.70;99.90
5011;DHT22;2524;54.364;10.072;2024-03-07T10:36:30;4.50;99.90
5011;DHT22;2524;54.364;10.072;2024-03-07T10:38:59;5.10;99.90
5011;DHT22;2524;54.364;10.072;2024-03-07T10:41:45;5.10;99.90
5011;DHT22;2524;54.364;10.072;2024-03-07T10:44:26;4.70;99.90
5011;DHT22;2524;54.364;10.072;2024-03-07T10:46:54;5.10;99.90
5011;DHT22;2524;54.364;10.072;2024-03-07T10:49:21;5.30;99.90
5011;DHT22;2524;54.364;10.072;2024-03-07T10:52:19;5.30;99.90
5011;DHT22;2524;54.364;10.072;2024-03-07T10:57:20;5.20;99.90
5011;DHT22;2524;54.364;10.072;2024-03-07T11:00:00;5.10;99.90
5011;DHT22;2524;54.364;10.072;2024-03-07T11:02:46;5.20;99.90
5011;DHT22;2524;54.364;10.072;2024-03-07T11:05:13;5.20;99.90
5011;DHT22;2524;54.364;10.072;2024-03-07T11:07:41;5.00;99.90
5011;DHT22;2524;54.364;10.072;2024-03-07T11:10:07;5.30;99.90
5011;DHT22;2524;54.364;10.072;2024-03-07T11:12:38;5.30;99.90
5011;DHT22;2524;54.364;10.072;2024-03-07T11:15:08;5.50;99.90
5011;DHT22;2524;54.364;10.072;2024-03-07T11:17:43;5.50;99.90
5011;DHT22;2524;54.364;10.072;2024-03-07T11:20:26;5.10;99.90
5011;DHT22;2524;54.364;10.072;2024-03-07T11:22:52;5.70;99.90
5011;DHT22;2524;54.364;10.072;2024-03-07T11:25:22;5.10;99.90
5011;DHT22;2524;54.364;10.072;2024-03-07T11:27:59;5.50;99.90
5011;DHT22;2524;54.364;10.072;2024-03-07T11:30:25;5.70;99.90
5011;DHT22;2524;54.364;10.072;2024-03-07T11:32:51;5.30;99.90
5011;DHT22;2524;54.364;10.072;2024-03-07T11:35:21;5.20;99.90
5011;DHT22;2524;54.364;10.072;2024-03-07T11:37:58;5.40;99.90
5011;DHT22;2524;54.364;10.072;2024-03-07T11:42:54;5.20;99.90
5011;DHT22;2524;54.364;10.072;2024-03-07T11:45:25;5.60;99.90
5011;DHT22;2524;54.364;10.072;2024-03-07T11:47:55;5.50;99.90
5011;DHT22;2524;54.364;10.072;2024-03-07T11:50:41;5.70;99.90
5011;DHT22;2524;54.364;10.072;2024-03-07T11:53:09;5.80;99.90
5011;DHT22;2524;54.364;10.072;2024-03-07T11:55:35;5.70;99.90
5011;DHT22;2524;54.364;10.072;2024-03-07T11:58:12;5.90;99.90
5011;DHT22;2524;54.364;10.072;2024-03-07T12:00:43;5.90;99.90
5011;DHT22;2524;54.364;10.072;2024-03-07T12:03:11;6.10;99.90
5011;DHT22;2524;54.364;10.072;2024-03-07T12:05:43;6.50;99.90
5011;DHT22;2524;54.364;10.072;2024-03-07T12:08:11;5.70;99.90
5011;DHT22;2524;54.364;10.072;2024-03-07T12:10:41;6.00;99.90
5011;DHT22;2524;54.364;10.072;2024-03-07T12:13:11;5.70;99.90
5011;DHT22;2524;54.364;10.072;2024-03-07T12:15:38;6.30;99.90
5011;DHT22;2524;54.364;10.072;2024-03-07T12:18:04;6.10;99.90
5011;DHT22;2524;54.364;10.072;2024-03-07T12:20:38;6.10;99.90
5011;DHT22;2524;54.364;10.072;2024-03-07T12:23:04;6.10;99.90
5011;DHT22;2524;54.364;10.072;2024-03-07T12:25:33;6.30;99.90
5011;DHT22;2524;54.364;10.072;2024-03-07T12:28:07;6.30;99.90
5011;DHT22;2524;54.364;10.072;2024-03-07T12:30:53;6.20;99.90
5011;DHT22;2524;54.364;10.072;2024-03-07T12:33:20;6.20;99.90
5011;DHT22;2524;54.364;10.072;2024-03-07T12:35:49;6.40;99.90
5011;DHT22;2524;54.364;10.072;2024-03-07T12:38:20;6.30;99.90
5011;DHT22;2524;54.364;10.072;2024-03-07T12:41:05;6.10;99.90
5011;DHT22;2524;54.364;10.072;2024-03-07T12:43:39;6.30;99.90
5011;DHT22;2524;54.364;10.072;2024-03-07T12:46:07;5.90;99.90
5011;DHT22;2524;54.364;10.072;2024-03-07T12:48:37;6.20;99.90
5011;DHT22;2524;54.364;10.072;2024-03-07T12:51:04;6.40;99.90
5011;DHT22;2524;54.364;10.072;2024-03-07T12:53:30;6.30;99.90
5011;DHT22;2524;54.364;10.072;2024-03-07T12:55:56;6.50;99.90
5011;DHT22;2524;54.364;10.072;2024-03-07T12:58:22;5.90;99.90
5011;DHT22;2524;54.364;10.072;2024-03-07T13:00:51;5.90;99.90
5011;DHT22;2524;54.364;10.072;2024-03-07T13:03:17;6.60;99.90
5011;DHT22;2524;54.364;10.072;2024-03-07T13:05:43;6.50;99.90
5011;DHT22;2524;54.364;10.072;2024-03-07T13:08:11;6.20;99.90
5011;DHT22;2524;54.364;10.072;2024-03-07T13:10:47;6.10;99.90
5011;DHT22;2524;54.364;10.072;2024-03-07T13:13:12;6.50;99.90
5011;DHT22;2524;54.364;10.072;2024-03-07T13:15:39;6.50;99.90
5011;DHT22;2524;54.364;10.072;2024-03-07T13:18:05;6.70;99.90
5011;DHT22;2524;54.364;10.072;2024-03-07T13:20:31;6.60;99.90
5011;DHT22;2524;54.364;10.072;2024-03-07T13:22:57;6.40;99.90
5011;DHT22;2524;54.364;10.072;2024-03-07T13:25:26;6.90;99.90
5011;DHT22;2524;54.364;10.072;2024-03-07T13:27:57;6.80;99.90
5011;DHT22;2524;54.364;10.072;2024-03-07T13:30:25;7.20;99.90
5011;DHT22;2524;54.364;10.072;2024-03-07T13:32:56;7.40;99.90
5011;DHT22;2524;54.364;10.072;2024-03-07T13:35:23;7.20;99.90
5011;DHT22;2524;54.364;10.072;2024-03-07T13:37:52;7.10;99.90
5011;DHT22;2524;54.364;10.072;2024-03-07T13:40:24;7.10;99.90
5011;DHT22;2524;54.364;10.072;2024-03-07T13:43:00;7.00;99.90
5011;DHT22;2524;54.364;10.072;2024-03-07T13:45:32;7.00;99.90
5011;DHT22;2524;54.364;10.072;2024-03-07T13:48:05;7.00;99.90
5011;DHT22;2524;54.364;10.072;2024-03-07T13:50:31;7.00;99.90
5011;DHT22;2524;54.364;10.072;2024-03-07T13:52:58;7.10;99.90
5011;DHT22;2524;54.364;10.072;2024-03-07T13:58:52;7.20;99.90
5011;DHT22;2524;54.364;10.072;2024-03-07T14:01:46;7.30;99.90
5011;DHT22;2524;54.364;10.072;2024-03-07T14:13:33;7.50;99.90
5011;DHT22;2524;54.364;10.072;2024-03-07T14:22:08;7.50;99.90
5011;DHT22;2524;54.364;10.072;2024-03-07T14:32:49;7.40;99.90
5011;DHT22;2524;54.364;10.072;2024-03-07T14:38:22;7.50;99.90
5011;DHT22;2524;54.364;10.072;2024-03-07T14:40:50;7.30;99.90
5011;DHT22;2524;54.364;10.072;2024-03-07T14:43:17;7.20;99.90
5011;DHT22;2524;54.364;10.072;2024-03-07T14:45:44;7.30;99.90
5011;DHT22;2524;54.364;10.072;2024-03-07T14:48:12;7.30;99.90
5011;DHT22;2524;54.364;10.072;2024-03-07T14:50:42;7.40;99.90
5011;DHT22;2524;54.364;10.072;2024-03-07T14:53:10;7.50;99.90
5011;DHT22;2524;54.364;10.072;2024-03-07T14:55:39;7.50;99.90
5011;DHT22;2524;54.364;10.072;2024-03-07T14:58:05;7.60;99.90
5011;DHT22;2524;54.364;10.072;2024-03-07T15:00:37;7.70;99.90
5011;DHT22;2524;54.364;10.072;2024-03-07T15:03:11;8.00;99.90
5011;DHT22;2524;54.364;10.072;2024-03-07T15:05:41;8.00;99.90
5011;DHT22;2524;54.364;10.072;2024-03-07T15:08:07;8.10;99.90
5011;DHT22;2524;54.364;10.072;2024-03-07T15:10:36;8.20;99.90
5011;DHT22;2524;54.364;10.072;2024-03-07T15:13:02;8.20;99.90
5011;DHT22;2524;54.364;10.072;2024-03-07T15:15:30;8.30;99.90
5011;DHT22;2524;54.364;10.072;2024-03-07T15:17:57;8.40;99.90
5011;DHT22;2524;54.364;10.072;2024-03-07T15:20:26;8.50;99.90
5011;DHT22;2524;54.364;10.072;2024-03-07T15:22:56;8.30;99.90
5011;DHT22;2524;54.364;10.072;2024-03-07T15:25:22;8.20;99.90
5011;DHT22;2524;54.364;10.072;2024-03-07T15:27:49;8.20;99.90
5011;DHT22;2524;54.364;10.072;2024-03-07T15:30:16;8.20;99.90
5011;DHT22;2524;54.364;10.072;2024-03-07T15:32:42;8.20;99.90
5011;DHT22;2524;54.364;10.072;2024-03-07T15:35:09;8.20;99.90
5011;DHT22;2524;54.364;10.072;2024-03-07T15:37:53;8.10;99.90
5011;DHT22;2524;54.364;10.072;2024-03-07T15:40:20;8.10;99.90
5011;DHT22;2524;54.364;10.072;2024-03-07T15:42:50;8.00;99.90
5011;DHT22;2524;54.364;10.072;2024-03-07T15:45:21;7.90;99.90
5011;DHT22;2524;54.364;10.072;2024-03-07T15:47:52;7.80;99.90
5011;DHT22;2524;54.364;10.072;2024-03-07T15:50:18;7.80;99.90
5011;DHT22;2524;54.364;10.072;2024-03-07T15:52:45;7.60;99.90
5011;DHT22;2524;54.364;10.072;2024-03-07T15:55:12;7.60;99.90
5011;DHT22;2524;54.364;10.072;2024-03-07T15:57:45;7.90;99.90
5011;DHT22;2524;54.364;10.072;2024-03-07T16:00:13;7.90;99.90
5011;DHT22;2524;54.364;10.072;2024-03-07T16:02:55;7.90;99.90
5011;DHT22;2524;54.364;10.072;2024-03-07T16:05:22;7.90;99.90
5011;DHT22;2524;54.364;10.072;2024-03-07T16:07:49;8.00;99.90
5011;DHT22;2524;54.364;10.072;2024-03-07T16:10:15;7.90;99.90
5011;DHT22;2524;54.364;10.072;2024-03-07T16:12:41;8.00;99.90
5011;DHT22;2524;54.364;10.072;2024-03-07T16:15:07;7.80;99.90
5011;DHT22;2524;54.364;10.072;2024-03-07T16:17:36;7.80;99.90
5011;DHT22;2524;54.364;10.072;2024-03-07T16:20:03;7.70;99.90
5011;DHT22;2524;54.364;10.072;2024-03-07T16:22:30;7.70;99.90
5011;DHT22;2524;54.364;10.072;2024-03-07T16:24:56;7.60;99.90
5011;DHT22;2524;54.364;10.072;2024-03-07T16:27:23;7.70;99.90
5011;DHT22;2524;54.364;10.072;2024-03-07T16:29:48;7.40;99.90
5011;DHT22;2524;54.364;10.072;2024-03-07T16:32:15;7.30;99.90
5011;DHT22;2524;54.364;10.072;2024-03-07T16:34:40;7.20;99.90
5011;DHT22;2524;54.364;10.072;2024-03-07T16:37:08;7.20;99.90
5011;DHT22;2524;54.364;10.072;2024-03-07T16:39:34;7.20;99.90
5011;DHT22;2524;54.364;10.072;2024-03-07T16:42:00;7.00;99.90
5011;DHT22;2524;54.364;10.072;2024-03-07T16:44:25;6.90;99.90